createdAt,value
2022-10-13T00:00:07.840Z,8.13
2022-10-13T00:02:55.175Z,7.43
2022-10-13T00:05:47.709Z,7.70
2022-10-13T00:08:28.893Z,6.38
2022-10-13T00:11:02.803Z,5.40
2022-10-13T00:13:50.246Z,5.80
2022-10-13T00:16:31.469Z,4.68
2022-10-13T00:19:16.187Z,5.35
2022-10-13T00:22:07.375Z,4.72
2022-10-13T00:24:56.964Z,4.25
2022-10-13T00:27:39.701Z,4.43
2022-10-13T00:30:34.071Z,4.20
2022-10-13T00:33:29.124Z,4.72
2022-10-13T00:36:04.573Z,4.68
2022-10-13T00:38:42.118Z,4.70
2022-10-13T00:41:45.217Z,3.92
2022-10-13T00:44:48.248Z,5.90
2022-10-13T00:47:48.436Z,4.10
2022-10-13T00:50:55.368Z,5.57
2022-10-13T00:53:39.436Z,4.90
2022-10-13T00:56:25.715Z,4.45
2022-10-13T00:59:14.048Z,3.42
2022-10-13T01:02:21.798Z,2.80
2022-10-13T01:05:32.820Z,3.05
2022-10-13T01:08:22.105Z,2.60
2022-10-13T01:11:09.045Z,3.05
2022-10-13T01:17:31.581Z,3.08
2022-10-13T01:20:44.229Z,3.05
2022-10-13T01:24:01.546Z,2.70
2022-10-13T01:27:28.749Z,2.78
2022-10-13T01:30:32.931Z,2.58
2022-10-13T01:33:44.663Z,2.65
2022-10-13T01:36:54.020Z,3.95
2022-10-13T01:40:10.243Z,3.42
2022-10-13T01:42:55.404Z,2.88
2022-10-13T01:45:41.821Z,2.88
2022-10-13T01:48:34.062Z,2.22
2022-10-13T01:51:30.220Z,2.45
2022-10-13T01:54:09.314Z,2.38
2022-10-13T01:56:54.241Z,2.00
2022-10-13T01:59:40.227Z,1.90
2022-10-13T02:02:49.352Z,2.50
2022-10-13T02:05:45.738Z,1.95
2022-10-13T02:08:41.707Z,2.17
2022-10-13T02:11:22.267Z,1.90
2022-10-13T02:14:08.185Z,2.20
2022-10-13T02:16:45.493Z,2.40
2022-10-13T02:19:23.066Z,2.60
2022-10-13T02:22:15.194Z,2.03
2022-10-13T02:24:58.206Z,2.38
2022-10-13T02:27:51.667Z,2.17
2022-10-13T02:30:40.133Z,3.00
2022-10-13T02:33:29.153Z,2.60
2022-10-13T02:39:22.932Z,6.43
2022-10-13T02:42:04.413Z,2.80
2022-10-13T02:44:53.356Z,2.60
2022-10-13T02:47:47.798Z,2.45
2022-10-13T02:50:29.047Z,3.83
2022-10-13T02:53:12.612Z,3.00
2022-10-13T02:55:58.780Z,3.33
2022-10-13T02:58:43.083Z,2.50
2022-10-13T03:01:23.273Z,2.30
2022-10-13T03:06:55.430Z,2.13
2022-10-13T03:09:43.033Z,2.40
2022-10-13T03:12:29.125Z,2.65
2022-10-13T03:15:16.110Z,3.00
2022-10-13T03:18:01.276Z,4.00
2022-10-13T03:20:49.078Z,2.70
2022-10-13T03:26:16.175Z,2.23
2022-10-13T03:31:52.511Z,2.40
2022-10-13T03:37:51.213Z,2.87
2022-10-13T03:40:30.345Z,3.57
2022-10-13T03:43:18.833Z,5.82
2022-10-13T03:46:11.503Z,3.15
2022-10-13T03:49:05.637Z,2.63
2022-10-13T03:51:43.365Z,2.60
2022-10-13T03:54:29.617Z,2.73
2022-10-13T04:00:36.408Z,2.33
2022-10-13T04:03:14.090Z,2.20
2022-10-13T04:06:05.119Z,2.87
2022-10-13T04:09:11.335Z,2.35
2022-10-13T04:11:49.936Z,2.20
2022-10-13T04:14:29.480Z,3.58
2022-10-13T04:17:23.963Z,2.67
2022-10-13T04:20:15.801Z,2.30
2022-10-13T04:22:56.309Z,2.30
2022-10-13T04:25:38.036Z,2.93
2022-10-13T04:28:20.097Z,3.10
2022-10-13T04:30:58.032Z,2.80
2022-10-13T04:33:43.545Z,3.80
2022-10-13T04:36:36.521Z,2.63
2022-10-13T04:39:16.126Z,3.92
2022-10-13T04:41:55.595Z,2.75
2022-10-13T04:53:19.388Z,2.57
2022-10-13T04:55:59.318Z,2.50
2022-10-13T04:58:43.364Z,2.33
2022-10-13T05:01:57.363Z,2.50
2022-10-13T05:04:42.220Z,2.75
2022-10-13T05:07:48.377Z,2.38
2022-10-13T05:10:34.791Z,2.10
2022-10-13T05:13:33.642Z,2.42
2022-10-13T05:16:14.007Z,2.63
2022-10-13T05:19:05.004Z,2.75
2022-10-13T05:21:42.418Z,2.90
2022-10-13T05:24:45.710Z,2.75
2022-10-13T05:27:41.297Z,5.45
2022-10-13T05:30:35.550Z,3.80
2022-10-13T05:33:53.534Z,2.70
2022-10-13T05:36:45.708Z,2.70
2022-10-13T05:39:27.030Z,2.83
2022-10-13T05:42:06.553Z,2.65
2022-10-13T05:47:23.416Z,2.75
2022-10-13T05:50:09.725Z,2.80
2022-10-13T05:52:56.736Z,3.15
2022-10-13T06:02:10.944Z,2.78
2022-10-13T06:05:00.611Z,2.35
2022-10-13T06:07:38.460Z,2.50
2022-10-13T06:10:20.957Z,3.72
2022-10-13T06:13:07.388Z,3.10
2022-10-13T06:15:48.320Z,3.45
2022-10-13T06:18:35.206Z,3.25
2022-10-13T06:21:13.812Z,3.55
2022-10-13T06:23:50.223Z,2.97
2022-10-13T06:26:37.749Z,3.28
2022-10-13T06:29:16.645Z,3.75
2022-10-13T06:34:31.723Z,4.00
2022-10-13T06:40:04.761Z,3.75
2022-10-13T06:42:39.791Z,3.35
2022-10-13T06:45:37.691Z,2.95
2022-10-13T06:48:32.381Z,3.40
2022-10-13T06:57:48.592Z,2.97
2022-10-13T07:00:48.395Z,3.08
2022-10-13T07:03:32.498Z,2.70
2022-10-13T07:06:16.342Z,2.72
2022-10-13T07:08:58.290Z,3.05
2022-10-13T07:11:50.357Z,3.10
2022-10-13T07:14:30.798Z,3.17
2022-10-13T07:17:42.958Z,2.85
2022-10-13T07:20:43.634Z,3.42
2022-10-13T07:23:28.371Z,3.60
2022-10-13T07:26:14.584Z,4.13
2022-10-13T07:29:01.814Z,3.92
2022-10-13T07:31:37.446Z,3.25
2022-10-13T07:34:42.527Z,3.80
2022-10-13T07:37:25.723Z,3.58
2022-10-13T07:40:18.336Z,3.47
2022-10-13T07:43:01.707Z,3.25
2022-10-13T07:45:39.288Z,3.72
2022-10-13T07:48:25.311Z,4.13
2022-10-13T07:51:13.057Z,3.55
2022-10-13T07:53:51.357Z,3.00
2022-10-13T07:56:36.494Z,3.53
2022-10-13T07:59:15.875Z,2.97
2022-10-13T08:01:58.410Z,3.42
2022-10-13T08:04:47.561Z,2.92
2022-10-13T08:07:34.113Z,2.95
2022-10-13T08:10:20.634Z,3.10
2022-10-13T08:13:01.880Z,3.47
2022-10-13T08:15:45.281Z,4.00
2022-10-13T08:18:29.912Z,3.35
2022-10-13T08:24:50.124Z,3.20
2022-10-13T08:27:50.273Z,3.08
2022-10-13T08:30:54.038Z,2.95
2022-10-13T08:33:30.177Z,3.45
2022-10-13T08:36:08.981Z,3.40
2022-10-13T08:39:02.961Z,2.97
2022-10-13T08:41:49.019Z,3.20
2022-10-13T08:45:10.865Z,3.17
2022-10-13T08:48:00.639Z,2.95
2022-10-13T08:53:53.237Z,3.33
2022-10-13T08:56:55.145Z,2.95
2022-10-13T08:59:31.710Z,2.67
2022-10-13T09:02:34.230Z,2.80
2022-10-13T09:05:25.089Z,3.00
2022-10-13T09:08:24.964Z,2.53
2022-10-13T09:11:16.618Z,2.72
2022-10-13T09:14:14.221Z,2.67
2022-10-13T09:17:00.091Z,3.17
2022-10-13T09:19:55.052Z,3.03
2022-10-13T09:22:53.171Z,3.80
2022-10-13T09:25:40.359Z,3.80
2022-10-13T09:28:29.997Z,4.40
2022-10-13T09:31:53.570Z,5.80
2022-10-13T09:34:39.813Z,5.72
2022-10-13T09:37:28.627Z,5.25
2022-10-13T09:40:26.917Z,4.20
2022-10-13T09:43:17.041Z,4.30
2022-10-13T09:46:00.282Z,3.72
2022-10-13T09:48:49.774Z,3.50
2022-10-13T09:51:50.594Z,2.78
2022-10-13T09:54:43.111Z,2.92
2022-10-13T09:57:33.465Z,3.00
2022-10-13T10:00:19.110Z,3.10
2022-10-13T10:03:13.477Z,2.50
2022-10-13T10:14:37.488Z,3.22
2022-10-13T10:17:29.436Z,2.83
2022-10-13T10:20:23.728Z,3.25
2022-10-13T10:23:11.544Z,3.28
2022-10-13T10:25:57.993Z,4.72
2022-10-13T10:32:13.089Z,3.92
2022-10-13T10:35:07.618Z,3.92
2022-10-13T10:38:16.992Z,3.88
2022-10-13T10:41:05.555Z,3.20
2022-10-13T10:43:59.542Z,2.95
2022-10-13T10:46:42.082Z,3.00
2022-10-13T10:55:38.307Z,3.85
2022-10-13T10:58:47.508Z,3.30
2022-10-13T11:01:41.846Z,3.77
2022-10-13T11:04:53.255Z,4.38
2022-10-13T11:07:56.899Z,3.95
2022-10-13T11:10:42.590Z,4.20
2022-10-13T11:13:30.838Z,3.28
2022-10-13T11:16:40.373Z,3.55
2022-10-13T11:19:52.200Z,3.83
2022-10-13T11:22:37.557Z,3.08
2022-10-13T11:25:50.194Z,3.17
2022-10-13T11:28:53.311Z,3.15
2022-10-13T11:32:03.066Z,4.10
2022-10-13T11:34:47.215Z,3.13
2022-10-13T11:37:32.801Z,2.90
2022-10-13T11:40:33.446Z,2.50
2022-10-13T11:43:57.860Z,3.00
2022-10-13T11:47:03.749Z,2.95
2022-10-13T11:50:07.593Z,3.25
2022-10-13T11:53:12.220Z,3.83
2022-10-13T11:56:19.339Z,3.70
2022-10-13T11:59:05.258Z,4.07
2022-10-13T12:01:50.156Z,3.95
2022-10-13T12:04:45.675Z,3.90
2022-10-13T12:07:28.585Z,4.25
2022-10-13T12:10:29.330Z,4.22
2022-10-13T12:13:13.972Z,4.43
2022-10-13T12:16:19.288Z,3.75
2022-10-13T12:19:05.200Z,3.00
2022-10-13T12:22:15.515Z,2.88
2022-10-13T12:25:10.871Z,3.13
2022-10-13T12:28:15.652Z,3.10
2022-10-13T12:31:30.656Z,2.97
2022-10-13T12:34:11.091Z,2.75
2022-10-13T12:37:23.768Z,3.47
2022-10-13T12:40:01.551Z,3.30
2022-10-13T12:42:53.881Z,2.88
2022-10-13T12:45:41.185Z,3.63
2022-10-13T12:48:54.819Z,3.08
2022-10-13T12:51:41.218Z,3.03
2022-10-13T12:54:30.067Z,2.85
2022-10-13T12:57:12.792Z,3.40
2022-10-13T13:00:03.998Z,2.90
2022-10-13T13:02:42.368Z,3.38
2022-10-13T13:05:51.690Z,3.33
2022-10-13T13:11:32.472Z,2.88
2022-10-13T13:14:53.246Z,3.20
2022-10-13T13:20:30.824Z,2.92
2022-10-13T13:23:17.135Z,3.65
2022-10-13T13:26:11.178Z,5.63
2022-10-13T13:31:37.113Z,5.68
2022-10-13T13:34:24.437Z,7.15
2022-10-13T13:40:11.316Z,8.90
2022-10-13T13:42:53.624Z,8.82
2022-10-13T13:45:48.611Z,9.50
2022-10-13T13:48:36.893Z,9.68
2022-10-13T13:51:15.953Z,8.65
2022-10-13T13:53:55.628Z,9.32
2022-10-13T13:59:41.936Z,8.50
2022-10-13T14:02:42.922Z,8.82
2022-10-13T14:05:25.227Z,8.18
2022-10-13T14:08:06.050Z,8.90
2022-10-13T14:10:43.656Z,8.10
2022-10-13T14:13:19.614Z,7.78
2022-10-13T14:19:08.621Z,8.73
2022-10-13T14:21:46.971Z,6.93
2022-10-13T14:24:33.432Z,8.27
2022-10-13T14:27:28.850Z,8.95
2022-10-13T14:30:14.670Z,7.85
2022-10-13T14:32:54.000Z,9.00
2022-10-13T14:35:41.032Z,7.38
2022-10-13T14:38:35.237Z,6.93
2022-10-13T14:41:21.346Z,7.40
2022-10-13T14:44:00.406Z,6.88
2022-10-13T14:47:05.311Z,7.18
2022-10-13T14:49:49.444Z,6.35
2022-10-13T14:52:31.616Z,6.07
2022-10-13T14:55:21.736Z,5.00
2022-10-13T14:58:04.385Z,4.50
2022-10-13T15:00:46.918Z,4.40
2022-10-13T15:06:20.238Z,4.40
2022-10-13T15:09:06.881Z,4.65
2022-10-13T15:11:49.411Z,5.05
2022-10-13T15:14:29.742Z,5.80
2022-10-13T15:17:07.156Z,6.20
2022-10-13T15:20:10.623Z,6.40
2022-10-13T15:23:07.056Z,5.82
2022-10-13T15:25:52.875Z,5.18
2022-10-13T15:28:29.065Z,5.30
2022-10-13T15:31:09.085Z,9.55
2022-10-13T15:36:57.995Z,5.50
2022-10-13T15:39:36.720Z,5.88
2022-10-13T15:42:31.292Z,6.18
2022-10-13T15:45:20.564Z,5.13
2022-10-13T15:48:29.914Z,5.78
2022-10-13T15:51:19.704Z,5.78
2022-10-13T15:54:18.759Z,5.57
2022-10-13T15:56:57.443Z,4.68
2022-10-13T15:59:32.859Z,4.75
2022-10-13T16:02:12.793Z,4.18
2022-10-13T16:05:17.591Z,4.80
2022-10-13T16:08:11.602Z,3.83
2022-10-13T16:11:04.689Z,4.00
2022-10-13T16:13:52.456Z,4.57
2022-10-13T16:16:31.308Z,4.18
2022-10-13T16:19:17.161Z,4.85
2022-10-13T16:25:04.976Z,4.35
2022-10-13T16:27:46.271Z,5.68
2022-10-13T16:30:21.233Z,6.53
2022-10-13T16:41:06.877Z,6.35
2022-10-13T16:44:04.025Z,6.68
2022-10-13T16:46:43.049Z,6.60
2022-10-13T16:49:22.432Z,6.28
2022-10-13T16:52:06.981Z,6.72
2022-10-13T16:55:01.039Z,6.35
2022-10-13T16:57:40.183Z,6.82
2022-10-13T17:00:40.724Z,6.75
2022-10-13T17:03:28.420Z,7.20
2022-10-13T17:06:06.819Z,7.63
2022-10-13T17:08:46.409Z,7.25
2022-10-13T17:11:26.586Z,8.60
2022-10-13T17:14:07.274Z,8.30
2022-10-13T17:16:57.995Z,8.38
2022-10-13T17:19:41.803Z,7.38
2022-10-13T17:22:22.497Z,7.55
2022-10-13T17:25:08.441Z,8.20
2022-10-13T17:27:57.150Z,9.90
2022-10-13T17:30:32.647Z,8.02
2022-10-13T17:33:10.002Z,7.15
2022-10-13T17:35:50.654Z,7.45
2022-10-13T17:38:39.711Z,8.35
2022-10-13T17:41:24.903Z,7.47
2022-10-13T17:44:07.541Z,9.13
2022-10-13T17:46:46.825Z,8.38
2022-10-13T17:52:18.868Z,8.57
2022-10-13T17:55:12.241Z,9.32
2022-10-13T17:58:31.083Z,8.25
2022-10-13T18:04:41.732Z,9.40
2022-10-13T18:07:23.916Z,8.38
2022-10-13T18:10:17.371Z,9.52
2022-10-13T18:13:15.469Z,9.45
2022-10-13T18:15:59.612Z,9.85
2022-10-13T18:18:39.010Z,8.95
2022-10-13T18:21:26.372Z,9.85
2022-10-13T18:24:03.733Z,9.93
2022-10-13T18:26:43.517Z,9.50
2022-10-13T18:29:31.054Z,9.65
2022-10-13T18:32:18.950Z,11.00
2022-10-13T18:35:09.793Z,10.35
2022-10-13T18:37:55.737Z,9.85
2022-10-13T18:40:53.503Z,11.00
2022-10-13T18:43:35.400Z,9.80
2022-10-13T18:46:13.359Z,9.93
2022-10-13T18:49:01.035Z,9.35
2022-10-13T18:51:39.871Z,8.90
2022-10-13T18:54:17.971Z,8.23
2022-10-13T18:57:19.528Z,9.30
2022-10-13T19:00:17.003Z,8.63
2022-10-13T19:06:05.193Z,7.25
2022-10-13T19:08:50.224Z,6.90
2022-10-13T19:11:52.041Z,6.70
2022-10-13T19:14:39.890Z,6.13
2022-10-13T19:17:25.945Z,5.32
2022-10-13T19:23:18.205Z,5.20
2022-10-13T19:26:02.740Z,4.78
2022-10-13T19:28:49.453Z,5.25
2022-10-13T19:31:44.652Z,4.28
2022-10-13T19:34:28.875Z,4.82
2022-10-13T19:37:22.426Z,4.30
2022-10-13T19:40:19.233Z,4.35
2022-10-13T19:42:56.329Z,4.15
2022-10-13T19:45:59.600Z,4.13
2022-10-13T19:48:38.735Z,4.22
2022-10-13T19:51:52.882Z,4.43
2022-10-13T19:54:34.339Z,3.92
2022-10-13T19:57:42.371Z,4.30
2022-10-13T20:00:28.810Z,3.85
2022-10-13T20:03:07.083Z,3.70
2022-10-13T20:05:58.952Z,3.90
2022-10-13T20:08:46.701Z,3.80
2022-10-13T20:11:49.131Z,3.97
2022-10-13T20:14:37.372Z,3.50
2022-10-13T20:17:15.460Z,3.70
2022-10-13T20:19:59.406Z,3.10
2022-10-13T20:22:41.519Z,3.90
2022-10-13T20:25:32.075Z,5.38
2022-10-13T20:28:17.384Z,3.60
2022-10-13T20:31:12.045Z,3.72
2022-10-13T20:33:51.291Z,3.67
2022-10-13T20:36:43.379Z,3.72
2022-10-13T20:39:26.396Z,4.25
2022-10-13T20:42:34.440Z,5.53
2022-10-13T20:45:16.139Z,5.10
2022-10-13T20:47:57.047Z,4.97
2022-10-13T20:50:39.032Z,5.07
2022-10-13T20:53:22.639Z,4.97
2022-10-13T20:56:12.917Z,4.72
2022-10-13T20:58:58.004Z,5.25
2022-10-13T21:01:43.675Z,5.88
2022-10-13T21:04:36.247Z,5.72
2022-10-13T21:07:20.583Z,5.68
2022-10-13T21:10:11.163Z,5.40
2022-10-13T21:12:57.621Z,5.68
2022-10-13T21:15:43.616Z,5.55
2022-10-13T21:21:25.560Z,5.97
2022-10-13T21:24:15.122Z,6.88
2022-10-13T21:27:12.658Z,4.70
2022-10-13T21:30:16.678Z,5.35
2022-10-13T21:33:03.122Z,5.47
2022-10-13T21:38:42.484Z,5.82
2022-10-13T21:41:23.676Z,6.25
2022-10-13T21:44:26.198Z,5.68
2022-10-13T21:47:06.904Z,6.97
2022-10-13T21:49:45.678Z,8.32
2022-10-13T21:52:39.720Z,8.93
2022-10-13T21:55:39.633Z,7.35
2022-10-13T22:01:39.556Z,8.90
2022-10-13T22:07:45.559Z,7.38
2022-10-13T22:10:27.265Z,8.38
2022-10-13T22:16:05.456Z,9.80
2022-10-13T22:18:58.966Z,12.10
2022-10-13T22:25:03.185Z,11.85
2022-10-13T22:31:03.173Z,12.82
2022-10-13T22:33:46.106Z,12.50
2022-10-13T22:36:33.539Z,13.48
2022-10-13T22:39:23.547Z,13.55
2022-10-13T22:42:02.181Z,12.52
2022-10-13T22:44:58.476Z,13.40
2022-10-13T22:47:40.788Z,13.93
2022-10-13T22:50:19.873Z,13.65
2022-10-13T22:53:06.704Z,14.40
2022-10-13T22:55:53.648Z,14.13
2022-10-13T22:58:35.476Z,12.82
2022-10-13T23:04:19.955Z,13.73
2022-10-13T23:12:30.121Z,12.32
2022-10-13T23:15:08.848Z,11.43
2022-10-13T23:17:54.516Z,11.45
2022-10-13T23:20:44.523Z,12.50
2022-10-13T23:23:38.179Z,12.38
2022-10-13T23:26:29.599Z,12.73
2022-10-13T23:29:08.815Z,11.15
2022-10-13T23:32:09.969Z,11.35
2022-10-13T23:35:07.338Z,9.90
2022-10-13T23:38:02.418Z,10.35
2022-10-13T23:43:52.606Z,5.32
2022-10-13T23:46:38.783Z,4.55
2022-10-13T23:49:16.335Z,4.50
2022-10-13T23:51:57.344Z,4.38
2022-10-13T23:54:49.701Z,3.30
2022-10-13T23:57:40.774Z,4.30
